createdAt,value
2022-12-03T00:00:17.723Z,96121.31
2022-12-03T00:02:44.150Z,96119.38
2022-12-03T00:05:11.114Z,96122.63
2022-12-03T00:07:37.914Z,96127.50
2022-12-03T00:10:06.030Z,96128.88
2022-12-03T00:12:32.415Z,96119.00
2022-12-03T00:14:58.796Z,96125.25
2022-12-03T00:17:25.608Z,96120.34
2022-12-03T00:19:51.933Z,96119.03
2022-12-03T00:22:18.242Z,96121.97
2022-12-03T00:24:44.983Z,96115.38
2022-12-03T00:27:11.287Z,96120.03
2022-12-03T00:29:37.600Z,96116.09
2022-12-03T00:32:04.477Z,96112.66
2022-12-03T00:34:31.088Z,96115.41
2022-12-03T00:36:57.413Z,96115.09
2022-12-03T00:39:24.338Z,96121.78
2022-12-03T00:41:50.681Z,96117.38
2022-12-03T00:44:17.023Z,96116.72
2022-12-03T00:46:43.847Z,96106.91
2022-12-03T00:49:10.197Z,96111.31
2022-12-03T00:51:36.577Z,96118.69
2022-12-03T00:54:03.426Z,96118.38
2022-12-03T00:56:29.765Z,96111.50
2022-12-03T00:58:56.472Z,96119.50
2022-12-03T01:01:22.864Z,96121.13
2022-12-03T01:03:49.221Z,96115.09
2022-12-03T01:06:15.562Z,96114.75
2022-12-03T01:08:41.896Z,96110.81
2022-12-03T01:11:28.689Z,96115.41
2022-12-03T01:13:54.998Z,96122.94
2022-12-03T01:16:21.389Z,96111.16
2022-12-03T01:18:48.185Z,96117.41
2022-12-03T01:21:14.524Z,96114.63
2022-12-03T01:23:40.825Z,96115.75
2022-12-03T01:26:07.546Z,96114.59
2022-12-03T01:28:34.254Z,96120.69
2022-12-03T01:31:19.669Z,96106.25
2022-12-03T01:33:46.059Z,96113.13
2022-12-03T01:36:12.441Z,96112.66
2022-12-03T01:38:39.150Z,96119.97
2022-12-03T01:41:08.622Z,96114.75
2022-12-03T01:43:38.345Z,96118.38
2022-12-03T01:46:04.930Z,96113.28
2022-12-03T01:48:35.617Z,96107.06
2022-12-03T01:51:02.542Z,96109.53
2022-12-03T01:53:28.984Z,96111.50
2022-12-03T01:55:55.472Z,96110.53
2022-12-03T01:58:27.649Z,96115.09
2022-12-03T02:00:54.090Z,96112.47
2022-12-03T02:03:25.997Z,96110.84
2022-12-03T02:05:53.310Z,96117.22
2022-12-03T02:08:36.934Z,96118.69
2022-12-03T02:11:29.371Z,96119.53
2022-12-03T02:14:01.071Z,96115.78
2022-12-03T02:16:28.606Z,96125.75
2022-12-03T02:18:56.487Z,96117.72
2022-12-03T02:21:54.623Z,96122.97
2022-12-03T02:24:55.622Z,96120.47
2022-12-03T02:27:22.961Z,96120.81
2022-12-03T02:29:49.285Z,96123.09
2022-12-03T02:32:15.674Z,96121.16
2022-12-03T02:34:45.861Z,96119.03
2022-12-03T02:37:35.554Z,96115.25
2022-12-03T02:40:12.543Z,96113.63
2022-12-03T02:42:39.636Z,96122.16
2022-12-03T02:45:08.209Z,96121.00
2022-12-03T02:48:07.355Z,96114.78
2022-12-03T02:50:37.741Z,96114.13
2022-12-03T02:53:09.255Z,96114.28
2022-12-03T02:55:37.492Z,96112.16
2022-12-03T02:58:05.061Z,96112.47
2022-12-03T03:00:32.590Z,96112.31
2022-12-03T03:03:00.076Z,96115.56
2022-12-03T03:05:26.864Z,96119.19
2022-12-03T03:07:53.322Z,96116.75
2022-12-03T03:10:23.108Z,96115.59
2022-12-03T03:12:52.315Z,96123.91
2022-12-03T03:15:19.255Z,96112.63
2022-12-03T03:17:45.662Z,96130.97
2022-12-03T03:20:12.849Z,96121.00
2022-12-03T03:22:41.814Z,96123.78
2022-12-03T03:25:15.669Z,96125.56
2022-12-03T03:27:43.456Z,96116.56
2022-12-03T03:30:10.566Z,96123.94
2022-12-03T03:32:39.113Z,96113.44
2022-12-03T03:35:07.004Z,96117.72
2022-12-03T03:37:33.623Z,96121.31
2022-12-03T03:40:00.076Z,96115.59
2022-12-03T03:42:27.030Z,96109.53
2022-12-03T03:44:53.766Z,96111.16
2022-12-03T03:47:20.412Z,96113.13
2022-12-03T03:49:49.788Z,96111.78
2022-12-03T03:52:17.187Z,96119.03
2022-12-03T03:54:43.665Z,96112.47
2022-12-03T03:57:10.423Z,96104.94
2022-12-03T03:59:36.851Z,96106.25
2022-12-03T04:02:03.500Z,96110.16
2022-12-03T04:04:36.888Z,96109.50
2022-12-03T04:07:03.369Z,96112.78
2022-12-03T04:09:29.686Z,96116.34
2022-12-03T04:12:14.922Z,96115.22
2022-12-03T04:14:41.243Z,96114.72
2022-12-03T04:17:07.569Z,96119.97
2022-12-03T04:19:34.298Z,96112.78
2022-12-03T04:22:19.041Z,96119.28
2022-12-03T04:24:45.715Z,96119.47
2022-12-03T04:27:31.134Z,96123.06
2022-12-03T04:29:57.458Z,96111.59
2022-12-03T04:32:42.550Z,96111.72
2022-12-03T04:35:28.506Z,96117.31
2022-12-03T04:37:55.394Z,96113.22
2022-12-03T04:40:40.154Z,96109.78
2022-12-03T04:43:06.948Z,96117.47
2022-12-03T04:45:33.307Z,96114.72
2022-12-03T04:47:59.717Z,96119.94
2022-12-03T04:50:26.411Z,96118.94
2022-12-03T04:52:52.729Z,96119.22
2022-12-03T04:55:19.094Z,96114.69
2022-12-03T04:57:45.758Z,96108.47
2022-12-03T05:00:12.834Z,96109.09
2022-12-03T05:02:39.754Z,96109.28
2022-12-03T05:05:06.622Z,96107.28
2022-12-03T05:07:33.450Z,96097.59
2022-12-03T05:09:59.874Z,96098.06
2022-12-03T05:12:26.212Z,96095.56
2022-12-03T05:14:53.277Z,96109.66
2022-12-03T05:17:19.856Z,96104.31
2022-12-03T05:20:05.001Z,96112.31
2022-12-03T05:22:31.331Z,96107.09
2022-12-03T05:24:57.820Z,96114.41
2022-12-03T05:27:24.775Z,96114.03
2022-12-03T05:29:51.592Z,96110.72
2022-12-03T05:32:17.994Z,96108.16
2022-12-03T05:34:44.642Z,96113.50
2022-12-03T05:37:11.403Z,96114.53
2022-12-03T05:39:37.771Z,96112.50
2022-12-03T05:42:23.812Z,96118.06
2022-12-03T05:44:50.656Z,96119.22
2022-12-03T05:47:16.980Z,96112.22
2022-12-03T05:49:43.883Z,96110.63
2022-12-03T05:52:10.345Z,96104.91
2022-12-03T05:54:36.748Z,96103.75
2022-12-03T05:57:03.672Z,96094.16
2022-12-03T05:59:30.027Z,96105.59
2022-12-03T06:01:56.411Z,96107.81
2022-12-03T06:04:23.062Z,96110.78
2022-12-03T06:06:49.384Z,96111.63
2022-12-03T06:09:15.895Z,96119.28
2022-12-03T06:11:42.201Z,96134.88
2022-12-03T06:14:08.833Z,96135.06
2022-12-03T06:16:35.526Z,96144.41
2022-12-03T06:19:01.892Z,96136.97
2022-12-03T06:21:28.220Z,96134.44
2022-12-03T06:23:55.017Z,96143.47
2022-12-03T06:26:21.417Z,96142.19
2022-12-03T06:28:49.230Z,96135.94
2022-12-03T06:31:16.611Z,96137.13
2022-12-03T06:33:42.951Z,96129.94
2022-12-03T06:36:09.397Z,96124.88
2022-12-03T06:38:36.125Z,96120.63
2022-12-03T06:41:02.824Z,96125.22
2022-12-03T06:43:30.812Z,96128.72
2022-12-03T06:45:57.438Z,96135.06
2022-12-03T06:48:23.783Z,96134.91
2022-12-03T06:50:50.114Z,96134.34
2022-12-03T06:53:16.801Z,96124.91
2022-12-03T06:55:43.204Z,96139.56
2022-12-03T06:58:09.511Z,96135.28
2022-12-03T07:00:36.246Z,96132.31
2022-12-03T07:03:02.648Z,96141.69
2022-12-03T07:05:28.985Z,96149.94
2022-12-03T07:07:55.758Z,96132.84
2022-12-03T07:10:22.526Z,96136.94
2022-12-03T07:12:48.885Z,96137.28
2022-12-03T07:15:15.941Z,96130.44
2022-12-03T07:17:42.299Z,96135.19
2022-12-03T07:20:10.084Z,96134.34
2022-12-03T07:22:36.418Z,96132.72
2022-12-03T07:25:02.753Z,96133.44
2022-12-03T07:27:29.109Z,96138.00
2022-12-03T07:29:55.491Z,96128.19
2022-12-03T07:32:21.869Z,96128.00
2022-12-03T07:34:48.607Z,96115.28
2022-12-03T07:37:18.624Z,96118.59
2022-12-03T07:39:47.848Z,96119.00
2022-12-03T07:42:14.189Z,96120.41
2022-12-03T07:44:40.490Z,96123.81
2022-12-03T07:47:06.876Z,96119.03
2022-12-03T07:49:33.576Z,96124.59
2022-12-03T07:51:59.927Z,96119.09
2022-12-03T07:54:27.092Z,96118.06
2022-12-03T07:56:58.092Z,96123.22
2022-12-03T07:59:28.228Z,96120.31
2022-12-03T08:01:55.050Z,96129.03
2022-12-03T08:04:22.054Z,96119.59
2022-12-03T08:06:49.148Z,96116.84
2022-12-03T08:09:16.452Z,96120.41
2022-12-03T08:11:49.030Z,96117.59
2022-12-03T08:14:19.728Z,96116.13
2022-12-03T08:16:47.564Z,96119.41
2022-12-03T08:19:16.205Z,96126.78
2022-12-03T08:21:43.062Z,96120.78
2022-12-03T08:24:20.920Z,96124.75
2022-12-03T08:26:48.590Z,96124.28
2022-12-03T08:29:19.503Z,96122.25
2022-12-03T08:31:52.567Z,96116.38
2022-12-03T08:34:22.520Z,96120.31
2022-12-03T08:36:58.451Z,96125.19
2022-12-03T08:39:30.996Z,96124.13
2022-12-03T08:42:23.666Z,96117.75
2022-12-03T08:44:49.983Z,96115.56
2022-12-03T08:47:20.498Z,96117.31
2022-12-03T08:50:27.410Z,96114.91
2022-12-03T08:52:57.706Z,96105.41
2022-12-03T08:55:38.632Z,96095.22
2022-12-03T08:58:33.226Z,96081.66
2022-12-03T09:01:07.381Z,96075.31
2022-12-03T09:03:34.533Z,96085.31
2022-12-03T09:06:00.834Z,96100.00
2022-12-03T09:08:27.593Z,96102.16
2022-12-03T09:10:53.932Z,96109.00
2022-12-03T09:13:20.259Z,96112.19
2022-12-03T09:15:47.086Z,96113.69
2022-12-03T09:18:14.643Z,96115.03
2022-12-03T09:20:41.158Z,96113.03
2022-12-03T09:23:07.580Z,96121.44
2022-12-03T09:25:34.573Z,96134.59
2022-12-03T09:28:00.949Z,96118.16
2022-12-03T09:30:27.444Z,96126.38
2022-12-03T09:32:54.109Z,96137.69
2022-12-03T09:35:20.567Z,96131.78
2022-12-03T09:37:46.897Z,96127.13
2022-12-03T09:40:14.173Z,96125.47
2022-12-03T09:42:41.474Z,96124.69
2022-12-03T09:45:12.824Z,96133.41
2022-12-03T09:47:43.652Z,96132.63
2022-12-03T09:50:18.210Z,96130.00
2022-12-03T09:52:45.405Z,96116.22
2022-12-03T09:55:16.802Z,96113.31
2022-12-03T09:57:43.314Z,96100.44
2022-12-03T10:00:23.458Z,96109.47
2022-12-03T10:02:52.525Z,96108.59
2022-12-03T10:05:21.486Z,96098.28
2022-12-03T10:07:49.669Z,96109.13
2022-12-03T10:10:19.545Z,96105.59
2022-12-03T10:12:46.690Z,96098.84
2022-12-03T10:15:16.090Z,96096.19
2022-12-03T10:17:42.762Z,96084.75
2022-12-03T10:20:17.566Z,96081.66
2022-12-03T10:22:43.978Z,96069.41
2022-12-03T10:25:16.041Z,96066.66
2022-12-03T10:27:43.400Z,96062.28
2022-12-03T10:30:19.731Z,96056.00
2022-12-03T10:32:49.268Z,96060.72
2022-12-03T10:35:22.952Z,96063.91
2022-12-03T10:38:03.640Z,96061.88
2022-12-03T10:40:33.217Z,96056.66
2022-12-03T10:43:16.283Z,96063.31
2022-12-03T10:45:44.352Z,96053.53
2022-12-03T10:48:18.248Z,96054.59
2022-12-03T10:51:04.538Z,96042.84
2022-12-03T10:53:36.790Z,96060.28
2022-12-03T10:56:06.557Z,96051.97
2022-12-03T10:58:38.881Z,96043.03
2022-12-03T11:01:16.438Z,96059.53
2022-12-03T11:03:43.435Z,96057.00
2022-12-03T11:06:22.154Z,96057.19
2022-12-03T11:08:57.601Z,96053.94
2022-12-03T11:11:29.289Z,96045.72
2022-12-03T11:14:00.691Z,96046.75
2022-12-03T11:16:39.378Z,96047.88
2022-12-03T11:19:13.911Z,96042.72
2022-12-03T11:22:05.378Z,96043.00
2022-12-03T11:24:33.883Z,96039.13
2022-12-03T11:27:00.194Z,96039.03
2022-12-03T11:29:59.038Z,96038.88
2022-12-03T11:32:43.495Z,96040.25
2022-12-03T11:35:25.379Z,96041.34
2022-12-03T11:37:52.330Z,96038.44
2022-12-03T11:40:18.593Z,96036.22
2022-12-03T11:42:46.709Z,96043.75
2022-12-03T11:45:23.023Z,96038.34
2022-12-03T11:47:58.781Z,96024.88
2022-12-03T11:50:28.222Z,96028.13
2022-12-03T11:52:56.086Z,96031.13
2022-12-03T11:55:36.120Z,96021.91
2022-12-03T11:58:06.041Z,96018.63
2022-12-03T12:00:32.445Z,96015.53
2022-12-03T12:03:00.383Z,96013.16
2022-12-03T12:05:35.496Z,96013.41
2022-12-03T12:08:03.076Z,96013.00
2022-12-03T12:10:47.642Z,95994.75
2022-12-03T12:13:28.874Z,95996.25
2022-12-03T12:15:55.340Z,95993.13
2022-12-03T12:18:40.003Z,95989.59
2022-12-03T12:21:44.570Z,95984.03
2022-12-03T12:24:45.611Z,95974.88
2022-12-03T12:27:22.409Z,95969.91
2022-12-03T12:30:00.038Z,95965.34
2022-12-03T12:32:50.503Z,95963.53
2022-12-03T12:35:24.930Z,95966.66
2022-12-03T12:38:21.477Z,95969.19
2022-12-03T12:40:50.338Z,95966.94
2022-12-03T12:43:28.014Z,95968.44
2022-12-03T12:45:56.708Z,95966.59
2022-12-03T12:48:33.870Z,95968.84
2022-12-03T12:51:09.801Z,95975.38
2022-12-03T12:53:37.634Z,95966.59
2022-12-03T12:56:11.687Z,95974.44
2022-12-03T12:58:37.993Z,95958.94
2022-12-03T13:01:11.574Z,95957.44
2022-12-03T13:03:39.478Z,95943.75
2022-12-03T13:06:06.133Z,95951.91
2022-12-03T13:08:42.814Z,95944.38
2022-12-03T13:11:24.422Z,95949.59
2022-12-03T13:13:52.209Z,95953.16
2022-12-03T13:16:32.876Z,95944.47
2022-12-03T13:19:01.353Z,95951.97
2022-12-03T13:21:39.056Z,95946.91
2022-12-03T13:24:39.638Z,95954.88
2022-12-03T13:27:18.396Z,95955.66
2022-12-03T13:29:46.795Z,95942.91
2022-12-03T13:32:20.625Z,95941.69
2022-12-03T13:34:50.690Z,95938.22
2022-12-03T13:37:28.069Z,95934.84
2022-12-03T13:39:57.240Z,95940.44
2022-12-03T13:42:45.819Z,95934.72
2022-12-03T13:45:25.137Z,95942.28
2022-12-03T13:48:00.649Z,95935.91
2022-12-03T13:50:37.742Z,95934.31
2022-12-03T13:53:26.660Z,95931.00
2022-12-03T13:56:18.013Z,95932.97
2022-12-03T13:58:44.326Z,95926.94
2022-12-03T14:01:10.690Z,95915.13
2022-12-03T14:03:37.450Z,95926.06
2022-12-03T14:06:03.907Z,95932.59
2022-12-03T14:08:30.237Z,95930.66
2022-12-03T14:11:00.311Z,95936.88
2022-12-03T14:13:27.290Z,95931.69
2022-12-03T14:15:54.188Z,95922.16
2022-12-03T14:18:20.587Z,95917.94
2022-12-03T14:20:48.260Z,95926.78
2022-12-03T14:23:16.207Z,95925.44
2022-12-03T14:25:43.975Z,95924.16
2022-12-03T14:28:10.917Z,95931.47
2022-12-03T14:30:37.576Z,95924.09
2022-12-03T14:33:04.558Z,95925.94
2022-12-03T14:35:31.354Z,95933.56
2022-12-03T14:37:57.723Z,95928.34
2022-12-03T14:40:24.134Z,95934.44
2022-12-03T14:42:51.021Z,95929.50
2022-12-03T14:45:17.425Z,95930.88
2022-12-03T14:47:43.802Z,95935.53
2022-12-03T14:50:14.597Z,95942.16
2022-12-03T14:52:41.412Z,95930.94
2022-12-03T14:55:08.163Z,95944.78
2022-12-03T14:57:34.860Z,95943.63
2022-12-03T15:00:01.284Z,95940.38
2022-12-03T15:02:28.691Z,95942.09
2022-12-03T15:04:55.440Z,95936.81
2022-12-03T15:07:39.267Z,95943.28
2022-12-03T15:10:07.909Z,95937.59
2022-12-03T15:12:34.311Z,95938.69
2022-12-03T15:15:00.640Z,95930.84
2022-12-03T15:17:31.665Z,95928.25
2022-12-03T15:19:58.586Z,95924.00
2022-12-03T15:22:25.139Z,95933.38
2022-12-03T15:24:52.230Z,95940.84
2022-12-03T15:27:18.553Z,95941.25
2022-12-03T15:29:45.318Z,95940.19
2022-12-03T15:32:11.635Z,95937.69
2022-12-03T15:34:37.954Z,95918.94
2022-12-03T15:37:04.657Z,95930.03
2022-12-03T15:39:32.859Z,95929.47
2022-12-03T15:41:59.174Z,95921.13
2022-12-03T15:44:26.185Z,95919.84
2022-12-03T15:46:52.501Z,95912.63
2022-12-03T15:49:19.875Z,95916.44
2022-12-03T15:51:46.463Z,95918.41
2022-12-03T15:54:12.791Z,95908.53
2022-12-03T15:56:39.096Z,95932.03
2022-12-03T15:59:05.910Z,95930.50
2022-12-03T16:01:32.829Z,95925.75
2022-12-03T16:03:59.254Z,95925.22
2022-12-03T16:06:25.634Z,95920.56
2022-12-03T16:08:52.347Z,95926.00
2022-12-03T16:11:18.664Z,95933.03
2022-12-03T16:13:45.019Z,95932.16
2022-12-03T16:16:11.821Z,95931.66
2022-12-03T16:18:38.255Z,95926.75
2022-12-03T16:21:04.648Z,95928.50
2022-12-03T16:23:31.322Z,95923.81
2022-12-03T16:25:57.709Z,95925.22
2022-12-03T16:28:24.292Z,95910.25
2022-12-03T16:30:50.881Z,95919.69
2022-12-03T16:33:20.098Z,95916.50
2022-12-03T16:35:49.137Z,95915.84
2022-12-03T16:38:15.448Z,95925.56
2022-12-03T16:40:41.789Z,95910.25
2022-12-03T16:43:09.569Z,95907.47
2022-12-03T16:45:42.414Z,95898.81
2022-12-03T16:48:08.806Z,95909.72
2022-12-03T16:50:37.815Z,95908.41
2022-12-03T16:53:04.179Z,95911.88
2022-12-03T16:55:30.506Z,95915.28
2022-12-03T16:57:57.337Z,95909.41
2022-12-03T17:00:25.708Z,95912.31
2022-12-03T17:02:52.159Z,95910.25
2022-12-03T17:05:18.742Z,95917.97
2022-12-03T17:07:45.129Z,95919.41
2022-12-03T17:10:11.887Z,95906.06
2022-12-03T17:13:07.700Z,95915.19
2022-12-03T17:15:24.952Z,95914.91
2022-12-03T17:17:51.488Z,95915.66
2022-12-03T17:20:18.434Z,95906.00
2022-12-03T17:22:44.801Z,95906.72
2022-12-03T17:25:12.365Z,95901.06
2022-12-03T17:27:44.876Z,95902.13
2022-12-03T17:30:13.100Z,95902.78
2022-12-03T17:32:39.459Z,95902.44
2022-12-03T17:35:06.277Z,95897.56
2022-12-03T17:37:32.614Z,95888.72
2022-12-03T17:39:58.985Z,95895.47
2022-12-03T17:42:26.198Z,95888.81
2022-12-03T17:44:52.807Z,95882.16
2022-12-03T17:47:19.210Z,95885.09
2022-12-03T17:49:45.569Z,95884.81
2022-12-03T17:52:12.226Z,95880.47
2022-12-03T17:55:08.589Z,95889.25
2022-12-03T17:57:25.265Z,95884.56
2022-12-03T17:59:52.092Z,95884.81
2022-12-03T18:02:18.815Z,95874.25
2022-12-03T18:04:45.655Z,95873.50
2022-12-03T18:07:11.969Z,95868.53
2022-12-03T18:09:38.283Z,95875.25
2022-12-03T18:12:05.167Z,95865.00
2022-12-03T18:14:31.519Z,95873.72
2022-12-03T18:16:57.838Z,95875.13
2022-12-03T18:19:24.537Z,95876.06
2022-12-03T18:21:50.899Z,95869.34
2022-12-03T18:24:17.271Z,95868.19
2022-12-03T18:26:43.827Z,95869.25
2022-12-03T18:29:10.139Z,95861.94
2022-12-03T18:31:36.571Z,95871.91
2022-12-03T18:34:03.474Z,95861.50
2022-12-03T18:36:34.233Z,95858.25
2022-12-03T18:39:00.969Z,95866.81
2022-12-03T18:41:28.011Z,95861.69
2022-12-03T18:43:54.768Z,95869.06
2022-12-03T18:49:10.325Z,95869.63
2022-12-03T18:51:37.027Z,95861.72
2022-12-03T18:54:03.629Z,95861.13
2022-12-03T18:56:30.409Z,95864.78
2022-12-03T18:58:56.754Z,95861.81
2022-12-03T19:01:23.142Z,95873.91
2022-12-03T19:03:50.246Z,95861.22
2022-12-03T19:06:20.838Z,95876.34
2022-12-03T19:08:48.720Z,95855.28
2022-12-03T19:11:15.570Z,95854.03
2022-12-03T19:13:42.187Z,95864.16
2022-12-03T19:16:10.482Z,95862.81
2022-12-03T19:18:37.239Z,95861.31
2022-12-03T19:21:08.314Z,95861.13
2022-12-03T19:23:35.823Z,95860.22
2022-12-03T19:26:04.629Z,95856.03
2022-12-03T19:28:31.545Z,95862.44
2022-12-03T19:31:00.281Z,95852.97
2022-12-03T19:33:28.671Z,95858.34
2022-12-03T19:35:56.462Z,95847.75
2022-12-03T19:38:24.059Z,95857.13
2022-12-03T19:41:04.672Z,95855.41
2022-12-03T19:43:34.416Z,95861.16
2022-12-03T19:46:09.855Z,95850.91
2022-12-03T19:48:38.239Z,95849.94
2022-12-03T19:51:32.375Z,95849.88
2022-12-03T19:53:53.962Z,95854.63
2022-12-03T19:56:20.366Z,95850.53
2022-12-03T19:58:47.367Z,95857.25
2022-12-03T20:01:16.867Z,95858.72
2022-12-03T20:03:46.590Z,95855.38
2022-12-03T20:06:14.467Z,95849.00
2022-12-03T20:08:41.367Z,95857.50
2022-12-03T20:11:20.041Z,95852.84
2022-12-03T20:13:48.130Z,95837.38
2022-12-03T20:16:15.691Z,95836.16
2022-12-03T20:18:44.706Z,95835.63
2022-12-03T20:21:12.367Z,95838.72
2022-12-03T20:23:39.228Z,95838.31
2022-12-03T20:26:24.762Z,95848.38
2022-12-03T20:28:53.344Z,95853.03
2022-12-03T20:31:22.309Z,95851.38
2022-12-03T20:33:51.519Z,95841.25
2022-12-03T20:36:21.232Z,95840.25
2022-12-03T20:38:47.619Z,95830.78
2022-12-03T20:41:17.227Z,95835.03
2022-12-03T20:43:43.942Z,95835.31
2022-12-03T20:46:16.944Z,95830.34
2022-12-03T20:48:44.936Z,95823.66
2022-12-03T20:51:20.103Z,95814.06
2022-12-03T20:53:47.681Z,95814.22
2022-12-03T20:56:20.370Z,95828.59
2022-12-03T20:58:49.379Z,95835.09
2022-12-03T21:01:27.345Z,95832.75
2022-12-03T21:03:56.260Z,95829.41
2022-12-03T21:06:25.367Z,95828.59
2022-12-03T21:08:56.922Z,95828.53
2022-12-03T21:11:26.505Z,95816.59
2022-12-03T21:13:54.149Z,95812.19
2022-12-03T21:16:45.604Z,95813.13
2022-12-03T21:19:10.622Z,95803.03
2022-12-03T21:21:36.996Z,95795.16
2022-12-03T21:24:03.447Z,95793.19
2022-12-03T21:26:30.082Z,95798.25
2022-12-03T21:28:56.416Z,95794.16
2022-12-03T21:31:25.670Z,95788.53
2022-12-03T21:33:56.546Z,95797.19
2022-12-03T21:36:23.991Z,95789.00
2022-12-03T21:38:50.717Z,95790.25
2022-12-03T21:41:17.951Z,95781.63
2022-12-03T21:43:44.754Z,95789.06
2022-12-03T21:47:10.720Z,95789.38
2022-12-03T21:49:01.109Z,95796.94
2022-12-03T21:51:27.838Z,95796.16
2022-12-03T21:53:54.163Z,95799.25
2022-12-03T21:56:20.523Z,95800.91
2022-12-03T21:58:47.874Z,95796.94
2022-12-03T22:01:22.995Z,95784.53
2022-12-03T22:03:50.453Z,95788.16
2022-12-03T22:06:18.039Z,95788.94
2022-12-03T22:08:44.809Z,95794.00
2022-12-03T22:11:14.753Z,95791.06
2022-12-03T22:13:41.867Z,95801.16
2022-12-03T22:16:12.254Z,95790.06
2022-12-03T22:18:40.028Z,95797.94
2022-12-03T22:21:08.600Z,95796.00
2022-12-03T22:23:35.462Z,95790.41
2022-12-03T22:26:05.312Z,95793.72
2022-12-03T22:28:32.606Z,95786.31
2022-12-03T22:30:59.326Z,95776.47
2022-12-03T22:33:26.380Z,95788.31
2022-12-03T22:36:00.245Z,95793.88
2022-12-03T22:38:29.131Z,95796.31
2022-12-03T22:40:55.782Z,95804.31
2022-12-03T22:43:22.327Z,95803.03
2022-12-03T22:45:53.333Z,95796.94
2022-12-03T22:48:19.664Z,95784.31
2022-12-03T22:50:47.317Z,95789.66
2022-12-03T22:53:15.170Z,95792.63
2022-12-03T22:55:42.240Z,95790.66
2022-12-03T22:58:09.775Z,95784.31
2022-12-03T23:00:38.890Z,95779.44
2022-12-03T23:03:06.113Z,95775.72
2022-12-03T23:05:38.490Z,95773.63
2022-12-03T23:08:06.954Z,95754.09
2022-12-03T23:10:34.885Z,95748.59
2022-12-03T23:13:02.152Z,95753.63
2022-12-03T23:15:28.984Z,95747.94
2022-12-03T23:17:55.722Z,95754.03
2022-12-03T23:20:22.994Z,95748.25
2022-12-03T23:22:49.950Z,95744.38
2022-12-03T23:25:16.426Z,95738.31
2022-12-03T23:27:44.415Z,95747.28
2022-12-03T23:30:11.579Z,95739.31
2022-12-03T23:32:38.206Z,95731.66
2022-12-03T23:35:05.779Z,95726.06
2022-12-03T23:37:32.169Z,95725.53
2022-12-03T23:39:58.501Z,95716.91
2022-12-03T23:42:25.164Z,95721.13
2022-12-03T23:44:52.073Z,95723.78
2022-12-03T23:47:18.399Z,95717.41
2022-12-03T23:49:44.911Z,95707.75
2022-12-03T23:52:11.450Z,95712.03
2022-12-03T23:54:38.106Z,95706.47
2022-12-03T23:57:04.472Z,95707.47
2022-12-03T23:59:31.371Z,95701.13
